Time;durP1;ratioP1;P1;durP2;ratioP2;P2;SDS_P1;SDS_P2;PMS_P1;PMS_P2;Temp;Humidity;BMP_temperature;BMP_pressure;BME280_temperature;BME280_humidity;BME280_pressure;Samples;Min_cycle;Max_cycle;Signal;HPM_P1;HPM_P2
2022/01/22 00:02:46;;;;;;;8.43;5.32;;;;;;;-0.12;49.50;100304.44;7738689;32;37609;-71
2022/01/22 00:07:04;;;;;;;5.22;4.60;;;;;;;0.13;49.43;100298.72;7738526;32;37064;-70
2022/01/22 00:11:39;;;;;;;7.65;4.90;;;;;;;0.42;49.32;100304.97;7738646;32;39436;-72
2022/01/22 00:15:56;;;;;;;8.98;4.70;;;;;;;0.77;48.17;100280.91;7738632;32;40941;-72
2022/01/22 00:20:13;;;;;;;8.75;5.07;;;;;;;0.50;47.66;100268.09;7738424;32;38697;-70
2022/01/22 00:24:37;;;;;;;8.50;4.87;;;;;;;0.17;48.96;100270.47;7738622;32;37007;-72
2022/01/22 00:28:53;;;;;;;6.45;4.60;;;;;;;0.14;49.01;100270.87;7738448;32;39413;-70
2022/01/22 00:33:09;;;;;;;9.23;4.80;;;;;;;0.34;48.64;100257.66;7738423;32;40773;-71
2022/01/22 00:37:25;;;;;;;10.27;5.10;;;;;;;0.02;48.93;100248.25;7738337;32;37606;-70
2022/01/22 00:41:41;;;;;;;7.78;5.30;;;;;;;0.09;48.80;100246.50;7738471;32;37656;-72
2022/01/22 00:45:57;;;;;;;9.25;5.43;;;;;;;0.12;49.03;100230.00;7738427;32;39160;-72
2022/01/22 00:50:15;;;;;;;8.27;4.25;;;;;;;0.01;49.21;100242.09;7738276;32;40133;-71
2022/01/22 00:54:32;;;;;;;5.95;4.40;;;;;;;0.09;49.10;100230.41;7738105;32;37941;-72
2022/01/22 00:58:49;;;;;;;8.43;4.70;;;;;;;0.04;49.28;100216.75;7738001;32;38039;-71
2022/01/22 01:03:05;;;;;;;6.07;4.57;;;;;;;-0.63;51.05;100208.84;7738082;32;39776;-72
2022/01/22 01:07:22;;;;;;;9.07;4.60;;;;;;;-0.11;49.95;100185.47;7737952;32;40787;-71
2022/01/22 01:11:45;;;;;;;5.55;4.12;;;;;;;-0.34;51.14;100174.97;7736952;32;37985;-69
2022/01/22 01:16:17;;;;;;;5.00;4.32;;;;;;;-0.53;51.34;100173.72;7738050;32;37163;-71
2022/01/22 01:34:23;;;;;;;6.72;4.50;;;;;;;-0.27;49.93;100150.91;7730935;32;217328;-71
2022/01/22 01:38:44;;;;;;;6.78;4.35;;;;;;;-0.04;49.34;100151.50;7737492;32;39203;-72
2022/01/22 01:47:18;;;;;;;4.57;3.90;;;;;;;-0.33;50.09;100114.97;7737302;32;37825;-70
2022/01/22 01:51:35;;;;;;;4.65;4.07;;;;;;;0.15;48.99;100123.19;7737273;32;38680;-71
2022/01/22 01:56:04;;;;;;;7.07;4.30;;;;;;;-0.37;50.30;100100.31;7737242;32;39372;-71
2022/01/22 02:00:23;;;;;;;6.57;4.60;;;;;;;0.48;48.28;100098.44;7737058;32;39727;-70
2022/01/22 02:04:41;;;;;;;5.60;4.30;;;;;;;-0.30;50.06;100103.06;7736721;32;37709;-71
2022/01/22 02:08:57;;;;;;;7.55;4.37;;;;;;;0.22;49.22;100087.56;7736925;32;37586;-71
2022/01/22 02:27:08;;;;;;;5.05;3.95;;;;;;;0.01;50.33;100046.41;7739990;32;37377;-71
2022/01/22 02:31:57;;;;;;;4.65;3.55;;;;;;;-0.05;50.34;100048.00;7739923;32;39570;-72
2022/01/22 02:36:21;;;;;;;6.72;3.83;;;;;;;0.44;49.17;100045.41;7739936;32;40628;-73
2022/01/22 02:40:44;;;;;;;;;;;;;;;0.12;49.37;100040.50;7740466;32;36278;-73
2022/01/22 02:45:01;;;;;;;4.32;3.85;;;;;;;0.25;49.75;100046.94;7740010;32;37518;-71
2022/01/22 02:49:17;;;;;;;4.37;3.47;;;;;;;0.44;49.47;100051.59;7739743;32;39436;-73
2022/01/22 02:53:34;;;;;;;5.72;3.80;;;;;;;0.84;48.48;100032.12;7739661;32;40830;-73
2022/01/22 02:57:50;;;;;;;6.50;3.62;;;;;;;0.64;48.68;100027.53;7739357;32;37964;-73
2022/01/22 03:02:08;;;;;;;5.53;3.80;;;;;;;0.90;48.41;100024.09;7739572;32;37813;-73
2022/01/22 03:06:24;;;;;;;5.50;3.67;;;;;;;0.63;48.97;100030.41;7739272;32;39353;-72
2022/01/22 03:10:43;;;;;;;5.93;3.70;;;;;;;0.88;48.25;100030.69;7739059;32;39874;-69
2022/01/22 03:28:40;;;;;;;5.82;3.90;;;;;;;1.23;47.31;100001.03;7727741;32;39664;-72
2022/01/22 03:32:57;;;;;;;4.78;3.80;;;;;;;1.57;46.95;99989.25;7724788;32;38570;-72
2022/01/22 03:37:13;;;;;;;4.85;3.62;;;;;;;1.61;46.88;99989.66;7739204;32;36781;-72
2022/01/22 03:41:29;;;;;;;11.43;4.00;;;;;;;1.71;46.78;99984.69;7739160;32;39854;-72
2022/01/22 03:45:46;;;;;;;7.15;3.67;;;;;;;1.71;46.74;99973.94;7739017;32;39912;-73
2022/01/22 03:50:04;;;;;;;4.72;3.87;;;;;;;1.43;47.83;99969.63;7725138;32;37917;-72
2022/01/22 03:54:20;;;;;;;5.57;3.53;;;;;;;1.78;47.86;99964.00;7739050;32;37410;-73
2022/01/22 03:58:42;;;;;;;4.72;3.47;;;;;;;1.75;49.72;99969.78;7738821;32;39292;-72
2022/01/22 04:11:46;;;;;;;6.93;3.87;;;;;;;1.79;53.26;99962.94;7738847;32;36848;-73
2022/01/22 04:16:03;;;;;;;9.73;4.75;;;;;;;1.59;54.62;99954.13;7738796;32;39313;-72
2022/01/22 04:24:55;;;;;;;5.12;3.85;;;;;;;1.73;55.51;99953.03;7738641;32;37758;-70
2022/01/22 04:29:11;;;;;;;6.37;3.90;;;;;;;1.71;55.89;99960.50;7738550;32;37850;-72
2022/01/22 04:33:28;;;;;;;4.55;3.60;;;;;;;1.73;56.65;99952.22;7738435;32;39292;-72
2022/01/22 04:37:46;;;;;;;4.75;3.75;;;;;;;1.41;58.47;99962.78;7738519;32;39946;-72
2022/01/22 04:42:02;;;;;;;4.22;3.60;;;;;;;1.48;58.16;99945.66;7738237;32;37818;-72
2022/01/22 04:46:34;;;;;;;4.37;3.95;;;;;;;1.37;58.80;99940.06;7737251;32;37789;-71
2022/01/22 04:55:28;;;;;;;5.12;3.90;;;;;;;1.52;58.96;99947.91;7738259;32;41521;-71
2022/01/22 04:59:45;;;;;;;5.93;3.75;;;;;;;1.23;60.20;99942.75;7738530;32;38570;-70
2022/01/22 05:04:01;;;;;;;8.82;3.40;;;;;;;0.93;61.73;99942.31;7737980;32;37036;-71
2022/01/22 05:08:17;;;;;;;6.30;3.90;;;;;;;1.12;61.27;99946.91;7738147;32;40522;-72
2022/01/22 05:12:33;;;;;;;7.25;3.58;;;;;;;0.98;62.13;99945.22;7738018;32;40799;-73
2022/01/22 05:16:50;;;;;;;5.43;3.80;;;;;;;1.25;61.36;99945.25;7733071;32;38278;-72
2022/01/22 05:21:10;;;;;;;7.32;4.10;;;;;;;1.49;60.53;99958.03;7708264;32;37297;-72
2022/01/22 05:25:36;;;;;;;8.70;3.92;;;;;;;1.58;60.37;99963.19;7737291;32;39446;-71
2022/01/22 05:30:12;;;;;;;6.72;4.00;;;;;;;1.13;62.42;99961.97;7724025;32;39950;-72
2022/01/22 05:39:10;;;;;;;8.48;5.15;;;;;;;0.89;63.87;99952.63;7736441;32;36747;-71
2022/01/22 05:43:26;;;;;;;10.95;5.50;;;;;;;0.91;64.31;99953.28;7737032;32;39355;-70
2022/01/22 05:47:44;;;;;;;7.18;4.00;;;;;;;0.84;64.65;99946.25;7735593;32;40851;-70
2022/01/22 05:52:03;;;;;;;7.45;4.43;;;;;;;0.66;68.25;99952.19;7735927;32;38550;-73
2022/01/22 06:00:57;;;;;;;6.20;4.18;;;;;;;0.47;66.76;99948.44;7736447;32;39296;-71
2022/01/22 06:05:14;;;;;;;5.78;4.18;;;;;;;0.41;67.08;99955.41;7736769;32;40810;-70
2022/01/22 06:09:32;;;;;;;6.20;4.20;;;;;;;0.76;65.91;99944.59;7736799;32;37909;-71
2022/01/22 06:13:49;;;;;;;4.78;4.20;;;;;;;0.84;65.68;99943.56;7736812;32;37888;-71
2022/01/22 06:18:06;;;;;;;9.35;4.40;;;;;;;0.91;64.71;99936.31;7736806;32;39906;-71
2022/01/22 06:22:22;;;;;;;4.90;4.22;;;;;;;0.71;65.63;99960.47;7736388;32;39973;-71
2022/01/22 06:26:38;;;;;;;7.60;5.07;;;;;;;0.84;65.10;99959.66;7736668;32;37231;-70
2022/01/22 06:30:55;;;;;;;5.68;4.22;;;;;;;0.66;65.80;99960.25;7736462;32;37052;-70
2022/01/22 06:35:12;;;;;;;7.95;5.47;;;;;;;0.99;64.55;99971.03;7736452;32;39134;-71
2022/01/22 06:39:28;;;;;;;10.95;5.22;;;;;;;0.91;64.47;99972.06;7735978;32;39916;-71
2022/01/22 06:43:44;;;;;;;5.62;4.45;;;;;;;0.75;64.69;99980.50;7735961;32;37811;-71
2022/01/22 06:48:00;;;;;;;5.25;4.37;;;;;;;0.81;64.71;99990.44;7735945;32;38511;-72
2022/01/22 06:52:16;;;;;;;10.43;5.55;;;;;;;1.30;62.42;99985.72;7735829;32;39284;-70
2022/01/22 06:56:33;;;;;;;10.27;5.57;;;;;;;1.03;63.09;99983.00;7735600;32;40177;-72
2022/01/22 07:00:49;;;;;;;8.70;4.85;;;;;;;1.34;62.30;99973.53;7735504;32;37470;-71
2022/01/22 07:05:06;;;;;;;10.65;5.25;;;;;;;0.84;64.62;99979.25;7735474;32;37837;-72
2022/01/22 07:09:22;;;;;;;8.75;5.30;;;;;;;0.64;65.39;99991.81;7737913;32;39476;-70
2022/01/22 07:13:39;;;;;;;8.48;5.43;;;;;;;0.68;65.11;99988.53;7739363;32;41546;-71
2022/01/22 07:17:55;;;;;;;4.80;4.15;;;;;;;1.29;62.97;99979.53;7739294;32;37787;-70
2022/01/22 07:23:01;;;;;;;11.35;4.85;;;;;;;0.85;64.38;99993.53;7739176;32;37863;-72
2022/01/22 07:26:51;;;;;;;7.53;5.00;;;;;;;0.58;65.72;99996.13;7732916;32;40014;-71
2022/01/22 07:31:08;;;;;;;9.25;5.32;;;;;;;0.79;65.43;99989.78;7739192;32;39612;-70
2022/01/22 07:35:24;;;;;;;6.55;5.12;;;;;;;0.58;65.43;100012.22;7738993;32;37980;-70
2022/01/22 07:39:41;;;;;;;8.43;6.12;;;;;;;0.51;65.92;100006.84;7739319;32;35470;-71
2022/01/22 07:43:57;;;;;;;10.65;7.22;;;;;;;0.94;64.88;100008.41;7738862;32;40494;-70
2022/01/22 07:48:13;;;;;;;15.38;8.32;;;;;;;0.99;64.07;100003.25;7738681;32;39719;-70
2022/01/22 07:52:29;;;;;;;14.50;7.75;;;;;;;1.28;63.41;100009.28;7738916;32;37945;-71
2022/01/22 07:56:46;;;;;;;15.60;7.68;;;;;;;1.24;63.03;99998.12;7738674;32;37327;-70
2022/01/22 08:01:02;;;;;;;13.23;7.62;;;;;;;1.06;63.46;100006.78;7738804;32;39311;-70
2022/01/22 08:05:18;;;;;;;14.27;8.15;;;;;;;0.90;63.87;100018.72;7738514;32;40783;-71
2022/01/22 08:09:34;;;;;;;16.05;11.07;;;;;;;1.38;62.36;100020.47;7738428;32;38670;-68
2022/01/22 08:13:50;;;;;;;7.95;5.07;;;;;;;1.72;61.51;100026.66;7738628;32;37644;-69
2022/01/22 08:18:08;;;;;;;7.55;5.22;;;;;;;2.22;60.21;100043.09;7738445;32;39441;-69
2022/01/22 08:22:24;;;;;;;14.18;8.82;;;;;;;2.51;59.79;100040.13;7738414;32;39921;-70
2022/01/22 08:26:48;;;;;;;7.50;5.05;;;;;;;2.24;60.39;100062.59;7738398;32;37827;-68
2022/01/22 08:31:18;;;;;;;6.20;4.78;;;;;;;2.80;58.12;100066.53;7738060;32;37060;-69
2022/01/22 08:35:53;;;;;;;9.18;4.62;;;;;;;2.72;57.73;100057.84;7737639;32;39487;-69
2022/01/22 08:40:10;;;;;;;6.28;4.62;;;;;;;3.07;56.86;100070.94;7738394;32;39694;-69
2022/01/22 08:44:26;;;;;;;8.40;4.72;;;;;;;2.97;56.31;100080.31;7738268;32;38709;-69
2022/01/22 08:48:43;;;;;;;7.55;4.50;;;;;;;2.73;55.97;100084.56;7735910;32;37752;-69
2022/01/22 08:52:59;;;;;;;11.00;5.53;;;;;;;2.11;58.59;100083.28;7737470;32;40118;-70
2022/01/22 08:57:15;;;;;;;8.68;5.30;;;;;;;2.68;58.86;100088.94;7738156;32;40712;-69
2022/01/22 09:01:31;;;;;;;7.20;4.93;;;;;;;3.33;57.10;100099.62;7738218;32;37569;-70
2022/01/22 09:05:48;;;;;;;5.95;4.47;;;;;;;3.73;55.11;100091.25;7738045;32;37707;-70
2022/01/22 09:10:05;;;;;;;6.90;4.35;;;;;;;3.92;53.18;100097.53;7737659;32;39355;-70
2022/01/22 09:14:22;;;;;;;6.53;4.30;;;;;;;4.29;51.71;100101.16;7737955;32;40884;-70
2022/01/22 09:18:38;;;;;;;6.12;4.50;;;;;;;4.71;50.63;100092.41;7737822;32;38637;-70
2022/01/22 09:22:54;;;;;;;8.98;4.62;;;;;;;4.91;49.78;100091.31;7737783;32;37108;-70
2022/01/22 09:27:12;;;;;;;8.35;4.43;;;;;;;5.29;48.78;100103.72;7737788;32;39435;-70
2022/01/22 09:31:30;;;;;;;6.70;3.70;;;;;;;5.96;47.82;100098.16;7737131;32;39295;-71
2022/01/22 09:35:46;;;;;;;6.15;3.78;;;;;;;5.86;45.27;100104.09;7716688;32;37947;-69
2022/01/22 09:40:03;;;;;;;8.38;4.12;;;;;;;5.50;44.83;100111.28;7734664;32;37443;-69
2022/01/22 09:44:19;;;;;;;9.35;5.37;;;;;;;6.14;44.82;100118.87;7737495;32;39024;-69
2022/01/22 09:48:43;;;;;;;11.52;5.43;;;;;;;6.14;45.07;100126.97;7737247;32;39726;-70
2022/01/22 09:53:00;;;;;;;8.07;4.45;;;;;;;6.21;45.07;100122.31;7737278;32;38451;-70
2022/01/22 09:57:16;;;;;;;9.77;4.80;;;;;;;6.31;45.20;100122.53;7737216;32;37167;-69
2022/01/22 10:01:34;;;;;;;7.68;4.80;;;;;;;6.61;43.42;100121.56;7737127;32;39382;-69
2022/01/22 10:05:50;;;;;;;7.32;4.32;;;;;;;7.03;41.31;100126.78;7736949;32;39480;-70
2022/01/22 10:10:08;;;;;;;6.00;4.12;;;;;;;6.67;43.40;100120.62;7736883;32;38549;-70
2022/01/22 10:14:24;;;;;;;7.20;4.90;;;;;;;6.23;41.49;100119.34;7736787;32;37776;-70
2022/01/22 10:18:40;;;;;;;7.15;3.90;;;;;;;6.22;41.89;100121.22;7736639;32;40191;-71
2022/01/22 10:23:00;;;;;;;5.62;3.85;;;;;;;7.38;40.45;100117.72;7736458;32;40806;-70
2022/01/22 10:27:26;;;;;;;3.90;3.03;;;;;;;8.02;38.97;100120.19;7736128;32;37993;-69
2022/01/22 10:31:43;;;;;;;4.90;2.92;;;;;;;8.07;37.28;100139.28;7736362;32;37769;-69
2022/01/22 10:36:15;;;;;;;4.47;2.90;;;;;;;8.41;34.86;100138.44;7736253;32;39145;-72
2022/01/22 10:40:40;;;;;;;4.15;2.60;;;;;;;8.89;34.10;100145.09;7736246;32;39685;-71
2022/01/22 10:45:00;;;;;;;3.80;3.17;;;;;;;8.80;34.54;100152.06;7739845;32;37842;-71
2022/01/22 10:49:23;;;;;;;25.02;12.73;;;;;;;8.96;32.38;100151.19;7739801;32;37031;-71
2022/01/22 10:53:48;;;;;;;5.45;3.10;;;;;;;9.09;33.06;100158.16;7726686;32;40021;-73
2022/01/22 10:58:09;;;;;;;4.15;2.50;;;;;;;9.65;32.03;100151.72;7739644;32;40771;-72
2022/01/22 11:02:36;;;;;;;4.18;2.15;;;;;;;9.95;28.79;100160.16;7739426;32;37659;-73
2022/01/22 11:06:56;;;;;;;3.45;2.20;;;;;;;10.14;28.19;100162.50;7739236;32;37303;-70
2022/01/22 11:11:37;;;;;;;3.35;2.42;;;;;;;9.85;29.63;100181.00;7738926;32;40657;-70
2022/01/22 11:15:54;;;;;;;2.60;1.90;;;;;;;10.07;28.20;100195.41;7739382;32;40600;-71
2022/01/22 11:20:13;;;;;;;11.70;6.65;;;;;;;10.40;27.36;100201.72;7725466;32;38695;-69
2022/01/22 11:24:32;;;;;;;4.65;2.17;;;;;;;10.65;27.32;100192.91;7725784;32;37197;-71
2022/01/22 11:28:51;;;;;;;5.15;3.50;;;;;;;10.02;27.85;100203.53;7739136;32;40020;-71
2022/01/22 11:33:11;;;;;;;3.83;2.45;;;;;;;10.76;28.67;100198.41;7739244;32;38787;-81
2022/01/22 11:37:43;;;;;;;2.70;1.77;;;;;;;11.41;30.49;100199.03;7725610;32;37777;-70
2022/01/22 11:42:00;;;;;;;3.67;2.00;;;;;;;11.12;24.26;100185.78;7739198;32;37731;-71
2022/01/22 11:46:26;;;;;;;3.05;2.17;;;;;;;10.88;25.03;100197.16;7739082;32;40134;-71
2022/01/22 11:50:53;;;;;;;2.62;1.90;;;;;;;11.40;25.25;100202.81;7739077;32;40845;-71
2022/01/22 11:55:15;;;;;;;3.22;2.05;;;;;;;10.82;25.17;100214.56;7738439;32;37960;-72
2022/01/22 11:59:32;;;;;;;2.83;2.05;;;;;;;11.21;23.34;100199.75;7739399;32;37771;-70
2022/01/22 12:03:57;;;;;;;3.00;2.00;;;;;;;11.81;23.27;100200.22;7738594;32;39997;-74
2022/01/22 12:08:29;;;;;;;2.83;2.20;;;;;;;11.17;29.76;100198.66;7738663;32;39894;-72
2022/01/22 12:17:59;;;;;;;3.75;2.15;;;;;;;11.18;23.99;100190.19;7738777;32;37370;-73
2022/01/22 12:22:34;;;;;;;2.35;2.10;;;;;;;11.07;23.63;100202.97;7698107;32;40095;-71
2022/01/22 12:26:52;;;;;;;4.78;2.20;;;;;;;10.37;23.64;100213.13;7738471;32;40862;-71
2022/01/22 12:31:16;;;;;;;3.87;1.90;;;;;;;10.78;24.04;100210.72;7738079;32;39287;-70
2022/01/22 12:35:39;;;;;;;3.65;2.08;;;;;;;10.96;22.13;100209.44;7738474;32;37220;-72
2022/01/22 12:39:56;;;;;;;2.53;1.95;;;;;;;10.78;22.76;100201.69;7724654;32;38495;-72
2022/01/22 12:44:27;;;;;;;3.00;2.03;;;;;;;11.06;21.88;100205.97;7738316;32;39887;-74
2022/01/22 12:48:48;;;;;;;2.97;1.90;;;;;;;10.52;22.89;100204.28;7738440;32;37898;-73
2022/01/22 12:53:10;;;;;;;5.00;2.00;;;;;;;10.65;22.65;100219.34;7738729;32;37886;-73
2022/01/22 12:57:28;;;;;;;3.55;2.33;;;;;;;10.48;21.00;100214.84;7724637;32;39423;-72
2022/01/22 13:01:46;;;;;;;3.37;2.40;;;;;;;9.88;22.45;100215.91;7724209;32;39960;-72
2022/01/22 13:06:03;;;;;;;3.97;2.50;;;;;;;9.62;21.68;100234.69;7736842;32;37279;-73
2022/01/22 13:10:23;;;;;;;2.95;2.30;;;;;;;9.27;24.01;100240.53;7738118;32;36865;-72
2022/01/22 13:14:39;;;;;;;3.17;2.03;;;;;;;9.66;22.80;100246.72;7737990;32;39313;-72
2022/01/22 13:18:58;;;;;;;4.07;2.40;;;;;;;10.09;22.16;100253.19;7737900;32;39790;-73
2022/01/22 13:23:19;;;;;;;2.28;1.90;;;;;;;10.71;23.16;100256.50;7737741;32;38033;-74
2022/01/22 13:27:40;;;;;;;3.67;2.15;;;;;;;10.78;22.93;100281.63;7737748;32;38953;-74
2022/01/22 13:32:13;;;;;;;3.67;2.00;;;;;;;11.01;21.40;100294.06;7723839;32;38839;-73
2022/01/22 13:37:15;;;;;;;3.90;2.10;;;;;;;11.37;21.01;100313.38;7737682;32;40606;-74
2022/01/22 13:50:10;;;;;;;4.35;2.40;;;;;;;10.05;22.30;100322.06;7723970;32;38637;-72
2022/01/22 13:54:38;;;;;;;4.95;2.60;;;;;;;10.32;22.04;100327.56;7723563;32;39687;-72
2022/01/22 13:58:54;;;;;;;4.30;2.60;;;;;;;10.58;21.85;100333.25;7737143;32;38072;-73
2022/01/22 14:04:00;;;;;;;5.57;2.87;;;;;;;9.91;22.61;100340.69;7736993;32;37278;-74
2022/01/22 14:08:06;;;;;;;7.20;3.22;;;;;;;11.17;21.75;100335.91;7732740;32;40122;-73
2022/01/22 14:12:54;;;;;;;6.25;2.50;;;;;;;14.81;17.95;100343.25;7736847;32;40893;-74
2022/01/22 14:17:13;;;;;;;2.67;1.87;;;;;;;18.85;13.53;100346.50;7737173;32;38760;-73
2022/01/22 14:21:30;;;;;;;3.87;2.30;;;;;;;21.76;10.87;100368.50;7740020;32;36815;-75
2022/01/22 14:26:23;;;;;;;4.05;2.17;;;;;;;20.96;10.14;100375.38;7739958;32;39303;-74
2022/01/22 14:30:44;;;;;;;;;;;;;;;22.13;10.08;100391.84;7740184;32;40381;-83
2022/01/22 14:35:01;;;;;;;4.55;2.53;;;;;;;22.78;10.53;100401.88;7740008;32;38990;-79
2022/01/22 14:39:31;;;;;;;5.57;1.98;;;;;;;23.11;11.48;100407.53;7739842;32;37080;-72
2022/01/22 14:44:24;;;;;;;5.12;2.25;;;;;;;21.91;10.16;100419.87;7739631;32;40479;-75
2022/01/22 14:48:26;;;;;;;3.95;2.12;;;;;;;21.49;10.72;100428.00;7739713;32;39927;-76
2022/01/22 14:52:45;;;;;;;4.05;2.00;;;;;;;20.79;10.66;100428.84;7739542;32;38769;-73
2022/01/22 14:57:04;;;;;;;4.53;2.28;;;;;;;20.54;10.85;100438.75;7739622;32;36998;-75
2022/01/22 15:01:20;;;;;;;5.43;2.42;;;;;;;18.12;12.55;100451.31;7739512;32;39007;-74
2022/01/22 15:05:37;;;;;;;4.22;2.35;;;;;;;15.10;15.13;100471.50;7739172;32;40851;-73
2022/01/22 15:09:53;;;;;;;4.43;2.35;;;;;;;12.09;18.85;100493.25;7738947;32;38525;-83
2022/01/22 15:14:10;;;;;;;5.45;2.78;;;;;;;12.66;18.23;100476.03;7739369;32;37100;-73
2022/01/22 15:18:50;;;;;;;5.55;2.75;;;;;;;11.07;19.60;100484.03;7739362;32;39607;-72
2022/01/22 15:23:07;;;;;;;8.30;3.40;;;;;;;9.47;21.93;100498.50;7739213;32;39865;-72
2022/01/22 15:27:23;;;;;;;5.35;2.87;;;;;;;7.57;24.68;100521.78;7738906;32;38765;-74
2022/01/22 15:31:51;;;;;;;6.25;2.85;;;;;;;7.18;25.12;100524.91;7738917;32;37263;-73
2022/01/22 15:36:27;;;;;;;6.37;3.20;;;;;;;6.08;27.12;100528.56;7739107;32;39781;-72
2022/01/22 15:40:45;;;;;;;3.65;2.75;;;;;;;5.20;28.08;100546.53;7739015;32;39971;-71
2022/01/22 15:45:02;;;;;;;4.12;3.08;;;;;;;4.55;29.44;100569.06;7739079;32;37465;-72
2022/01/22 15:49:23;;;;;;;5.65;3.47;;;;;;;4.03;29.99;100587.88;7739078;32;37060;-72
2022/01/22 15:53:39;;;;;;;3.50;3.03;;;;;;;4.01;29.96;100595.34;7738895;32;39182;-72
2022/01/22 15:57:56;;;;;;;4.55;3.47;;;;;;;3.89;30.90;100622.12;7737757;32;40570;-72
2022/01/22 16:02:12;;;;;;;4.72;3.33;;;;;;;3.33;31.56;100631.41;7723782;32;37916;-71
2022/01/22 16:11:02;;;;;;;4.85;3.35;;;;;;;2.80;32.76;100663.53;7737084;32;40096;-72
2022/01/22 16:15:18;;;;;;;8.52;3.92;;;;;;;2.87;33.35;100674.34;7737431;32;39959;-72
2022/01/22 16:19:37;;;;;;;7.78;4.18;;;;;;;2.82;34.16;100680.31;7737350;32;39143;-73
2022/01/22 16:23:53;;;;;;;7.85;5.30;;;;;;;2.70;35.48;100687.28;7737641;32;36146;-73
2022/01/22 16:28:10;;;;;;;6.22;4.15;;;;;;;2.75;35.35;100684.81;7737549;32;39066;-72
2022/01/22 16:32:27;;;;;;;5.00;4.20;;;;;;;2.48;35.88;100687.34;7735606;32;39868;-71
2022/01/22 16:36:44;;;;;;;3.83;3.47;;;;;;;2.38;36.02;100686.84;7735295;32;38034;-73
2022/01/22 16:41:02;;;;;;;4.07;3.47;;;;;;;2.06;36.31;100694.47;7737804;32;36072;-72
2022/01/22 16:54:39;;;;;;;5.37;3.95;;;;;;;2.11;36.76;100745.84;7738139;32;37884;-72
2022/01/22 16:58:57;;;;;;;6.35;3.90;;;;;;;1.88;37.54;100763.00;7738244;32;37066;-70
2022/01/22 17:03:17;;;;;;;8.23;4.25;;;;;;;2.06;37.98;100764.41;7738345;32;39274;-72
2022/01/22 17:07:40;;;;;;;7.20;4.53;;;;;;;1.74;39.12;100760.34;7738008;32;39903;-72
2022/01/22 17:16:32;;;;;;;6.87;4.65;;;;;;;1.49;40.30;100764.19;7737900;32;37126;-68
2022/01/22 17:20:48;;;;;;;6.00;4.03;;;;;;;1.08;40.82;100767.38;7737816;32;39405;-69
2022/01/22 17:25:05;;;;;;;8.10;4.70;;;;;;;0.93;41.58;100778.16;7734875;32;40881;-70
2022/01/22 17:29:21;;;;;;;7.85;5.20;;;;;;;1.00;41.08;100791.66;7736719;32;37966;-70
2022/01/22 17:33:38;;;;;;;7.97;4.78;;;;;;;0.73;41.65;100806.53;7723116;32;37756;-68
2022/01/22 17:37:54;;;;;;;10.80;5.57;;;;;;;0.89;41.33;100816.28;7734568;32;40045;-70
2022/01/22 17:42:30;;;;;;;8.65;5.70;;;;;;;0.68;41.94;100816.97;7735752;32;39873;-70
2022/01/22 17:46:49;;;;;;;11.18;5.72;;;;;;;0.32;42.70;100831.03;7736155;32;37848;-69
2022/01/22 17:51:07;;;;;;;9.73;6.00;;;;;;;-0.07;43.87;100822.06;7734085;32;37171;-70
2022/01/22 17:55:24;;;;;;;7.35;5.45;;;;;;;0.48;42.77;100830.06;7718712;32;40072;-71
2022/01/22 17:59:40;;;;;;;16.77;7.35;;;;;;;0.51;42.52;100827.03;7736128;32;40786;-71
2022/01/22 18:04:00;;;;;;;13.25;7.43;;;;;;;0.39;42.32;100842.69;7735758;32;37948;-69
2022/01/22 18:08:16;;;;;;;18.40;7.50;;;;;;;0.28;42.63;100857.37;7735871;32;37284;-71
2022/01/22 18:12:32;;;;;;;9.02;5.80;;;;;;;0.64;41.79;100872.03;7735738;32;39347;-70
2022/01/22 18:16:49;;;;;;;10.63;5.80;;;;;;;-0.11;43.96;100885.06;7735541;32;41275;-70
2022/01/22 18:21:05;;;;;;;10.70;5.60;;;;;;;0.12;43.78;100884.28;7735344;32;38172;-72
2022/01/22 18:25:22;;;;;;;11.65;6.15;;;;;;;-0.16;44.67;100882.06;7733371;32;37902;-71
2022/01/22 18:29:38;;;;;;;10.82;6.12;;;;;;;0.42;42.77;100868.34;7735799;32;39311;-70
2022/01/22 18:33:56;;;;;;;14.60;7.22;;;;;;;0.56;42.54;100872.94;7736359;32;40840;-69
2022/01/22 18:38:13;;;;;;;13.68;6.85;;;;;;;0.58;42.30;100878.94;7736198;32;37921;-69
2022/01/22 18:42:32;;;;;;;10.15;6.60;;;;;;;0.62;41.80;100891.00;7736084;32;37726;-71
2022/01/22 18:46:49;;;;;;;10.13;5.32;;;;;;;0.42;42.17;100890.66;7736103;32;40047;-69
2022/01/22 18:51:07;;;;;;;8.23;5.18;;;;;;;0.31;42.53;100899.09;7735996;32;40821;-71
2022/01/22 18:55:23;;;;;;;6.85;4.68;;;;;;;0.67;41.71;100903.88;7735764;32;37831;-70
2022/01/22 18:59:39;;;;;;;11.50;5.40;;;;;;;0.67;42.04;100906.56;7735829;32;36917;-71
2022/01/22 19:03:55;;;;;;;10.10;5.37;;;;;;;0.46;42.85;100902.69;7736572;32;39202;-69
2022/01/22 19:08:12;;;;;;;10.25;5.03;;;;;;;0.43;42.86;100886.09;7739479;32;39887;-69
2022/01/22 19:12:28;;;;;;;7.93;5.97;;;;;;;0.49;42.63;100893.44;7739449;32;37868;-68
2022/01/22 19:16:44;;;;;;;10.07;6.25;;;;;;;0.28;43.40;100892.25;7739453;32;37014;-68
2022/01/22 19:21:05;;;;;;;15.30;8.70;;;;;;;0.51;42.90;100884.19;7739450;32;39209;-68
2022/01/22 19:29:40;;;;;;;9.35;5.78;;;;;;;0.29;43.27;100895.75;7739330;32;38568;-71
2022/01/22 19:33:57;;;;;;;8.60;5.20;;;;;;;0.06;43.89;100895.72;7738953;32;37893;-69
2022/01/22 19:38:14;;;;;;;5.28;4.65;;;;;;;0.36;42.77;100892.19;7738425;32;39633;-70
2022/01/22 19:42:36;;;;;;;9.00;5.53;;;;;;;-0.43;44.49;100900.28;7738128;32;39859;-69
2022/01/22 19:46:53;;;;;;;;;;;;;;;-0.42;44.67;100904.63;7744065;32;38544;-69
2022/01/22 19:51:09;;;;;;;8.25;5.18;;;;;;;-0.48;44.47;100905.31;7739195;32;37674;-70
2022/01/22 19:55:27;;;;;;;8.45;4.72;;;;;;;-0.32;44.88;100907.13;7738856;32;39954;-69
2022/01/22 19:59:43;;;;;;;9.07;5.18;;;;;;;0.01;43.98;100903.47;7738936;32;40009;-68
2022/01/22 20:04:01;;;;;;;9.70;5.12;;;;;;;0.04;43.85;100895.91;7738619;32;37819;-68
2022/01/22 20:08:21;;;;;;;12.73;8.48;;;;;;;0.14;43.50;100898.37;7738808;32;36894;-70
2022/01/22 20:12:37;;;;;;;10.45;6.68;;;;;;;0.14;43.62;100906.41;7738752;32;39341;-68
2022/01/22 20:16:53;;;;;;;8.40;5.05;;;;;;;0.19;43.61;100912.09;7738151;32;40857;-69
2022/01/22 20:21:09;;;;;;;8.20;5.18;;;;;;;0.21;43.36;100914.56;7738964;32;37357;-69
2022/01/22 20:25:46;;;;;;;12.48;8.18;;;;;;;-0.08;44.13;100911.53;7738046;32;37406;-69
2022/01/22 20:30:03;;;;;;;9.65;5.72;;;;;;;-0.79;45.97;100913.28;7738520;32;39278;-69
2022/01/22 20:34:21;;;;;;;6.32;4.62;;;;;;;-0.39;45.40;100903.47;7738433;32;39735;-69
2022/01/22 20:38:40;;;;;;;8.00;5.10;;;;;;;-0.42;45.46;100893.06;7738455;32;37793;-69
2022/01/22 20:42:56;;;;;;;7.55;5.18;;;;;;;-0.20;44.84;100888.81;7738306;32;37886;-68
2022/01/22 20:47:28;;;;;;;10.70;5.18;;;;;;;-0.39;44.84;100882.84;7738312;32;39274;-69
2022/01/22 20:51:44;;;;;;;8.27;5.28;;;;;;;-0.40;45.58;100886.56;7738370;32;40010;-70
2022/01/22 20:56:01;;;;;;;14.27;6.80;;;;;;;-0.71;46.53;100888.31;7738071;32;37910;-69
2022/01/22 21:00:19;;;;;;;12.35;6.25;;;;;;;-0.62;46.26;100895.31;7737908;32;37174;-69
2022/01/22 21:04:35;;;;;;;11.07;5.43;;;;;;;-0.33;45.93;100900.06;7737697;32;38640;-69
2022/01/22 21:08:52;;;;;;;11.60;5.62;;;;;;;-0.26;46.13;100902.91;7737854;32;39881;-69
2022/01/22 21:13:12;;;;;;;9.43;5.62;;;;;;;-0.41;46.93;100905.47;7737638;32;37918;-68
2022/01/22 21:17:30;;;;;;;10.80;5.62;;;;;;;-0.32;45.91;100892.88;7737724;32;36238;-69
2022/01/22 21:21:47;;;;;;;11.55;6.65;;;;;;;-0.22;45.68;100878.25;7737605;32;40156;-67
2022/01/22 21:26:03;;;;;;;8.60;6.15;;;;;;;-0.34;45.65;100878.84;7736410;32;40072;-68
2022/01/22 21:30:19;;;;;;;10.55;6.07;;;;;;;-0.64;46.04;100894.63;7737431;32;37689;-68
2022/01/22 21:34:40;;;;;;;10.07;6.22;;;;;;;-0.26;45.40;100886.81;7737554;32;37066;-69
2022/01/22 21:43:18;;;;;;;9.90;5.05;;;;;;;-0.17;45.37;100868.84;7737155;32;40826;-68
2022/01/22 21:47:34;;;;;;;11.43;5.72;;;;;;;-0.35;45.67;100875.28;7737257;32;38013;-67
2022/01/22 21:51:51;;;;;;;6.47;4.80;;;;;;;-0.42;46.08;100867.09;7737406;32;37134;-68
2022/01/22 21:56:07;;;;;;;9.77;5.68;;;;;;;-0.14;45.26;100868.50;7737221;32;40013;-69
2022/01/22 22:00:23;;;;;;;8.93;5.60;;;;;;;-0.34;45.62;100866.25;7737145;32;40240;-69
2022/01/22 22:04:40;;;;;;;13.32;7.87;;;;;;;-0.01;55.69;100864.25;7736712;32;37725;-69
2022/01/22 22:08:57;;;;;;;17.65;8.85;;;;;;;-0.07;46.18;100864.97;7736925;32;37124;-69
2022/01/22 22:13:13;;;;;;;8.82;5.78;;;;;;;-0.30;45.79;100853.34;7736864;32;38877;-68